KOXC/OXC METAR and TAF weather

Enter ICAO airport designator
Station Type Date Time Source
KOXC METAR 2019/02/21 10:51 UTC NOAA

KOXC 211051Z VRB03KT 2SM BR OVC003 M01/M01 A2986 RMK AO2 CIG 002V007 SLP131 P0004 T10111011


Station Type Date Time Source
KOXC Decoded METAR 2019/02/21 10:51 UTC NOAA

Oxford, Waterbury-Oxford Airport, CT, United States (KOXC) 41-29N 073-08W
Feb 21, 2019 - 05:51 AM EST / 2019.02.21 1051 UTC
Wind: Variable at 3 MPH (3 KT):0
Visibility: 2 mile(s):0
Sky conditions: overcast
Weather: mist
Precipitation last hour: 0.04 inches
Temperature: 30.0 F (-1.1 C)
Dew Point: 30.0 F (-1.1 C)
Relative Humidity: 100%
Pressure (altimeter): 29.86 in. Hg (1011 hPa)
ob: KOXC 211051Z VRB03KT 2SM BR OVC003 M01/M01 A2986 RMK AO2 CIG 002V007 SLP131 P0004 T10111011
cycle: 11

Station Type Date Time Source
KOXC TAF UTC NOAA

Error!


Example: see airport list